Time;durP1;ratioP1;P1;durP2;ratioP2;P2;SDS_P1;SDS_P2;PMS_P1;PMS_P2;Temp;Humidity;BMP_temperature;BMP_pressure;BME280_temperature;BME280_humidity;BME280_pressure;Samples;Min_cycle;Max_cycle;Signal;HPM_P1;HPM_P2
2024/04/14 00:02:04;;;;;;;3.33;2.73;;;17.60;42.90;;;;;;5372322;26;20364;-68
2024/04/14 00:04:33;;;;;;;2.80;2.60;;;17.50;43.00;;;;;;5392103;26;20741;-68
2024/04/14 00:06:58;;;;;;;3.90;2.77;;;17.50;43.00;;;;;;5420302;26;20330;-68
2024/04/14 00:09:26;;;;;;;4.03;2.90;;;17.30;43.30;;;;;;5388559;26;20347;-68
2024/04/14 00:11:52;;;;;;;6.17;3.10;;;17.30;43.60;;;;;;5400706;26;20376;-67
2024/04/14 00:14:23;;;;;;;3.23;2.23;;;17.30;43.60;;;;;;5378440;26;20660;-68
2024/04/14 00:16:49;;;;;;;3.50;2.70;;;17.30;43.50;;;;;;5392278;26;20231;-68
2024/04/14 00:19:20;;;;;;;4.83;2.83;;;17.40;43.60;;;;;;5377203;26;20805;-67
2024/04/14 00:21:45;;;;;;;6.47;2.93;;;17.30;43.80;;;;;;5395013;26;20236;-67
2024/04/14 00:24:14;;;;;;;4.83;2.80;;;17.20;43.90;;;;;;5389487;26;20298;-68
2024/04/14 00:26:39;;;;;;;5.47;2.63;;;17.20;43.90;;;;;;5392576;26;20688;-68
2024/04/14 00:29:08;;;;;;;3.47;2.83;;;17.20;44.00;;;;;;5399308;26;20234;-67
2024/04/14 00:31:33;;;;;;;3.23;2.50;;;17.20;43.90;;;;;;5399479;26;20237;-67
2024/04/14 00:34:02;;;;;;;4.03;3.10;;;17.20;44.00;;;;;;5393859;26;20285;-68
2024/04/14 00:36:27;;;;;;;3.63;2.50;;;17.20;44.10;;;;;;5398669;26;20235;-67
2024/04/14 00:38:56;;;;;;;5.17;3.10;;;17.20;44.00;;;;;;5389133;26;20346;-68
2024/04/14 00:41:21;;;;;;;2.77;2.53;;;17.20;44.20;;;;;;5390414;26;22762;-67
2024/04/14 00:43:50;;;;;;;2.63;2.43;;;17.20;44.20;;;;;;5382989;26;20251;-67
2024/04/14 00:46:17;;;;;;;4.07;3.23;;;17.20;44.10;;;;;;5401558;26;20339;-67
2024/04/14 00:48:45;;;;;;;3.67;2.80;;;17.10;44.30;;;;;;5405383;26;20235;-67
2024/04/14 00:51:10;;;;;;;3.90;3.30;;;17.00;44.50;;;;;;5393241;26;20293;-68
2024/04/14 00:53:39;;;;;;;4.50;3.70;;;17.00;44.50;;;;;;5394348;26;20336;-67
2024/04/14 00:56:04;;;;;;;3.87;2.97;;;17.00;44.30;;;;;;5393032;26;20365;-67
2024/04/14 00:58:32;;;;;;;3.37;3.07;;;16.90;44.60;;;;;;5392645;26;20745;-67
2024/04/14 01:00:58;;;;;;;3.97;3.00;;;16.90;44.60;;;;;;5370687;26;20627;-68
2024/04/14 01:03:26;;;;;;;4.67;2.90;;;16.90;44.90;;;;;;5385197;26;20236;-67
2024/04/14 01:05:52;;;;;;;3.40;2.80;;;16.90;44.70;;;;;;5382182;26;20327;-68
2024/04/14 01:08:20;;;;;;;2.67;2.47;;;16.90;44.60;;;;;;5398727;26;20239;-68
2024/04/14 01:10:46;;;;;;;2.73;2.53;;;16.90;44.50;;;;;;5396305;26;20243;-68
2024/04/14 01:13:14;;;;;;;3.60;2.70;;;16.80;44.50;;;;;;5384448;26;20278;-68
2024/04/14 01:15:40;;;;;;;3.57;3.27;;;16.80;44.50;;;;;;5377219;26;20311;-68
2024/04/14 01:18:08;;;;;;;3.07;2.70;;;16.70;44.50;;;;;;5373870;26;20355;-67
2024/04/14 01:20:34;;;;;;;4.77;2.47;;;16.70;44.80;;;;;;5391609;26;20375;-68
2024/04/14 01:23:02;;;;;;;3.00;2.70;;;16.70;44.80;;;;;;5397285;26;20691;-68
2024/04/14 01:25:28;;;;;;;3.20;2.50;;;16.60;44.70;;;;;;5397947;26;20346;-67
2024/04/14 01:27:56;;;;;;;4.67;2.90;;;16.50;44.80;;;;;;5393906;26;20648;-68
2024/04/14 01:30:21;;;;;;;3.07;2.67;;;16.60;44.70;;;;;;5394125;26;20273;-68
2024/04/14 01:32:50;;;;;;;3.93;3.13;;;16.70;44.20;;;;;;5396759;26;20298;-68
2024/04/14 01:35:15;;;;;;;2.83;2.37;;;16.80;44.00;;;;;;5385035;26;20335;-68
2024/04/14 01:37:44;;;;;;;3.30;2.70;;;16.60;44.00;;;;;;5387704;26;20258;-68
2024/04/14 01:40:11;;;;;;;4.07;3.50;;;16.70;44.00;;;;;;5395243;26;20636;-68
2024/04/14 01:42:39;;;;;;;3.30;2.50;;;16.70;43.60;;;;;;5394806;26;20325;-68
2024/04/14 01:45:08;;;;;;;3.67;2.97;;;16.60;43.70;;;;;;5374895;26;20372;-68
2024/04/14 01:47:36;;;;;;;4.27;2.50;;;16.60;43.70;;;;;;5392351;26;20242;-68
2024/04/14 01:50:02;;;;;;;3.80;2.33;;;16.50;44.00;;;;;;5399311;26;20611;-68
2024/04/14 01:52:30;;;;;;;5.97;2.30;;;16.60;43.80;;;;;;5395046;26;20242;-68
2024/04/14 01:54:55;;;;;;;3.17;2.63;;;16.60;43.40;;;;;;5408494;26;20250;-68
2024/04/14 01:57:24;;;;;;;3.40;2.60;;;16.60;43.40;;;;;;5385872;26;20348;-68
2024/04/14 01:59:49;;;;;;;3.40;3.10;;;16.50;43.50;;;;;;5390868;26;20345;-68
2024/04/14 02:02:18;;;;;;;4.50;2.70;;;16.50;43.90;;;;;;5385720;26;20249;-68
2024/04/14 02:04:43;;;;;;;2.50;2.30;;;16.50;43.60;;;;;;5388585;26;20396;-68
2024/04/14 02:07:12;;;;;;;3.50;2.57;;;16.60;43.40;;;;;;5401441;26;20241;-68
2024/04/14 02:09:37;;;;;;;2.93;2.73;;;16.50;43.60;;;;;;5400968;26;20297;-68
2024/04/14 02:12:06;;;;;;;5.40;2.37;;;16.30;44.10;;;;;;5398820;26;20242;-67
2024/04/14 02:14:31;;;;;;;2.93;2.57;;;16.20;45.10;;;;;;5380376;26;20320;-67
2024/04/14 02:16:59;;;;;;;4.27;2.70;;;16.00;45.50;;;;;;5398953;26;20230;-67
2024/04/14 02:19:25;;;;;;;4.80;2.87;;;15.90;46.10;;;;;;5393774;26;20296;-67
2024/04/14 02:21:53;;;;;;;4.27;2.60;;;15.70;46.60;;;;;;5388295;26;20347;-67
2024/04/14 02:24:19;;;;;;;2.60;2.40;;;15.70;46.50;;;;;;5399004;26;20356;-67
2024/04/14 02:26:47;;;;;;;3.77;2.43;;;15.60;46.60;;;;;;5400970;26;20618;-67
2024/04/14 02:29:13;;;;;;;3.50;2.53;;;15.60;47.10;;;;;;5395047;26;20339;-67
2024/04/14 02:31:41;;;;;;;3.43;2.73;;;15.50;47.10;;;;;;5386883;26;20258;-67
2024/04/14 02:34:07;;;;;;;3.20;2.60;;;15.50;47.70;;;;;;5394075;26;20230;-68
2024/04/14 02:36:35;;;;;;;4.03;2.40;;;15.40;48.10;;;;;;5379262;26;20246;-68
2024/04/14 02:39:01;;;;;;;2.80;2.60;;;15.50;47.30;;;;;;5423994;26;20288;-67
2024/04/14 02:41:30;;;;;;;2.73;2.47;;;15.50;47.30;;;;;;5384435;26;20368;-67
2024/04/14 02:43:55;;;;;;;3.90;2.30;;;15.50;47.10;;;;;;5391177;26;20241;-68
2024/04/14 02:46:23;;;;;;;2.60;2.40;;;15.50;46.80;;;;;;5396154;26;20367;-67
2024/04/14 02:48:49;;;;;;;2.43;2.30;;;15.60;46.90;;;;;;5401905;26;20845;-67
2024/04/14 02:51:17;;;;;;;2.93;2.53;;;15.50;46.80;;;;;;5402292;26;20326;-67
2024/04/14 02:53:43;;;;;;;2.57;2.37;;;15.50;46.10;;;;;;5402119;26;20253;-67
2024/04/14 02:56:11;;;;;;;3.37;2.73;;;15.50;46.10;;;;;;5400921;26;20323;-67
2024/04/14 02:58:36;;;;;;;2.33;2.00;;;15.50;45.60;;;;;;5378945;26;20338;-68
2024/04/14 03:01:05;;;;;;;2.63;2.30;;;15.70;43.10;;;;;;5404406;26;20242;-68
2024/04/14 03:03:30;;;;;;;2.97;2.30;;;15.80;41.70;;;;;;5399997;26;20840;-67
2024/04/14 03:05:59;;;;;;;2.30;2.10;;;16.00;40.60;;;;;;5393493;26;20254;-67
2024/04/14 03:08:24;;;;;;;2.30;2.10;;;16.10;40.20;;;;;;5389091;26;20338;-67
2024/04/14 03:10:53;;;;;;;3.40;2.10;;;16.10;39.10;;;;;;5387871;26;20752;-67
2024/04/14 03:13:19;;;;;;;2.57;1.73;;;16.00;40.10;;;;;;5399826;26;20373;-68
2024/04/14 03:15:47;;;;;;;2.93;2.10;;;16.00;39.50;;;;;;5397578;26;20246;-68
2024/04/14 03:18:13;;;;;;;2.00;1.90;;;16.00;39.60;;;;;;5393781;26;20294;-68
2024/04/14 03:20:41;;;;;;;2.10;1.90;;;16.10;38.80;;;;;;5379765;26;20339;-68
2024/04/14 03:23:06;;;;;;;1.90;1.80;;;15.90;38.60;;;;;;5363856;26;20583;-68
2024/04/14 03:25:35;;;;;;;2.60;2.30;;;16.00;38.90;;;;;;5394397;26;20303;-67
2024/04/14 03:28:00;;;;;;;2.53;1.90;;;15.80;39.10;;;;;;5399307;26;20337;-67
2024/04/14 03:30:29;;;;;;;2.30;2.10;;;15.90;39.60;;;;;;5394436;26;20234;-67
2024/04/14 03:32:54;;;;;;;2.13;1.97;;;15.80;38.90;;;;;;5394137;26;20303;-67
2024/04/14 03:35:23;;;;;;;2.13;1.80;;;15.60;41.40;;;;;;5381896;26;20238;-67
2024/04/14 03:37:51;;;;;;;2.03;1.93;;;15.50;40.90;;;;;;5384745;26;20375;-67
2024/04/14 03:40:19;;;;;;;3.20;2.10;;;15.50;40.80;;;;;;5390696;26;20359;-68
2024/04/14 03:42:48;;;;;;;3.47;2.13;;;15.50;41.40;;;;;;5399735;26;20729;-67
2024/04/14 03:45:19;;;;;;;1.90;1.80;;;15.60;41.00;;;;;;5400368;26;20352;-67
2024/04/14 03:47:47;;;;;;;3.20;1.80;;;15.50;41.20;;;;;;5383840;26;20239;-68
2024/04/14 03:50:15;;;;;;;2.40;2.00;;;15.50;39.80;;;;;;5385673;26;20656;-67
2024/04/14 03:52:41;;;;;;;3.07;2.10;;;15.70;38.40;;;;;;5388027;26;20331;-67
2024/04/14 03:55:09;;;;;;;2.53;2.10;;;15.70;40.30;;;;;;5376060;26;20672;-68
2024/04/14 03:57:35;;;;;;;3.87;2.00;;;15.60;40.20;;;;;;5377510;26;20359;-68
2024/04/14 04:00:03;;;;;;;1.80;1.70;;;15.40;40.90;;;;;;5385691;26;20245;-68
2024/04/14 04:02:29;;;;;;;2.10;1.90;;;15.50;40.10;;;;;;5392050;26;20718;-67
2024/04/14 04:04:57;;;;;;;3.20;2.00;;;15.40;40.00;;;;;;5395070;26;20253;-67
2024/04/14 04:07:23;;;;;;;2.43;1.80;;;15.60;37.90;;;;;;5402627;26;20582;-67
2024/04/14 04:09:51;;;;;;;2.07;1.90;;;15.70;37.00;;;;;;5397172;26;20240;-67
2024/04/14 04:12:16;;;;;;;2.97;1.70;;;15.70;37.50;;;;;;5392692;26;20307;-67
2024/04/14 04:14:45;;;;;;;1.90;1.70;;;15.70;38.00;;;;;;5397987;26;20335;-67
2024/04/14 04:17:10;;;;;;;2.10;1.90;;;15.70;37.50;;;;;;5372197;26;20251;-68
2024/04/14 04:19:38;;;;;;;2.17;1.90;;;15.70;36.90;;;;;;5393367;26;20234;-68
2024/04/14 04:22:04;;;;;;;2.43;1.73;;;15.60;38.30;;;;;;5392725;26;20254;-67
2024/04/14 04:24:32;;;;;;;3.53;1.80;;;15.60;37.40;;;;;;5393160;26;20735;-67
2024/04/14 04:26:58;;;;;;;2.53;1.97;;;15.50;38.70;;;;;;5398254;26;20251;-68
2024/04/14 04:29:27;;;;;;;2.90;2.07;;;15.60;37.60;;;;;;5383625;26;20341;-68
2024/04/14 04:31:54;;;;;;;2.73;1.80;;;15.60;36.40;;;;;;5394703;26;21720;-67
2024/04/14 04:34:22;;;;;;;3.40;1.87;;;15.70;36.20;;;;;;5390263;26;20244;-68
2024/04/14 04:36:48;;;;;;;1.90;1.70;;;15.80;35.60;;;;;;5397140;26;20232;-68
2024/04/14 04:39:17;;;;;;;2.00;1.80;;;15.80;35.60;;;;;;5393065;26;20691;-67
2024/04/14 04:41:42;;;;;;;2.73;1.67;;;15.60;37.60;;;;;;5393861;26;20233;-67
2024/04/14 04:44:10;;;;;;;3.23;1.80;;;15.30;38.20;;;;;;5389795;26;20292;-68
2024/04/14 04:46:36;;;;;;;2.93;2.30;;;15.40;38.60;;;;;;5399283;26;20343;-67
2024/04/14 04:49:05;;;;;;;3.93;2.20;;;15.30;40.00;;;;;;5393731;26;20244;-68
2024/04/14 04:51:30;;;;;;;2.60;2.40;;;15.00;40.80;;;;;;5376984;26;20305;-67
2024/04/14 04:53:59;;;;;;;2.00;1.80;;;15.10;41.50;;;;;;5396098;26;20820;-68
2024/04/14 04:56:24;;;;;;;3.00;1.93;;;15.10;41.40;;;;;;5378624;26;20367;-67
2024/04/14 04:58:53;;;;;;;2.60;2.13;;;15.00;41.40;;;;;;5386750;26;20260;-67
2024/04/14 05:01:18;;;;;;;2.47;1.90;;;14.90;41.30;;;;;;5374188;26;20684;-67
2024/04/14 05:03:47;;;;;;;2.60;2.23;;;14.90;42.00;;;;;;5407196;26;20346;-67
2024/04/14 05:06:12;;;;;;;2.37;2.10;;;14.90;41.30;;;;;;5384789;26;20888;-68
2024/04/14 05:08:40;;;;;;;2.53;2.33;;;14.80;41.90;;;;;;5372548;26;20239;-67
2024/04/14 05:11:06;;;;;;;2.17;1.90;;;14.90;42.10;;;;;;5398844;26;20287;-68
2024/04/14 05:13:34;;;;;;;2.03;1.93;;;14.90;42.30;;;;;;5401665;26;20345;-67
2024/04/14 05:16:02;;;;;;;2.30;1.70;;;14.90;42.30;;;;;;5397149;26;20605;-67
2024/04/14 05:18:31;;;;;;;2.20;2.00;;;15.10;41.30;;;;;;5392814;26;20758;-67
2024/04/14 05:20:56;;;;;;;2.60;2.13;;;15.10;41.30;;;;;;5396693;26;20645;-67
2024/04/14 05:23:24;;;;;;;2.03;1.83;;;15.20;40.80;;;;;;5396153;26;20330;-67
2024/04/14 05:25:50;;;;;;;2.47;1.80;;;15.20;40.90;;;;;;5405031;26;20286;-68
2024/04/14 05:28:18;;;;;;;2.03;1.80;;;15.20;40.60;;;;;;5389444;26;20348;-67
2024/04/14 05:30:44;;;;;;;1.70;1.60;;;15.40;40.20;;;;;;5401106;26;20624;-67
2024/04/14 05:33:12;;;;;;;2.33;2.00;;;15.50;40.10;;;;;;5396063;26;20345;-67
2024/04/14 05:35:37;;;;;;;2.03;1.63;;;15.60;39.70;;;;;;5395846;26;20342;-67
2024/04/14 05:38:06;;;;;;;2.47;1.70;;;15.70;39.20;;;;;;5390094;26;20228;-67
2024/04/14 05:40:31;;;;;;;3.03;2.00;;;15.90;39.10;;;;;;5389427;26;20351;-67
2024/04/14 05:42:59;;;;;;;2.17;2.07;;;16.00;38.90;;;;;;5403357;26;20247;-67
2024/04/14 05:45:25;;;;;;;1.87;1.70;;;16.20;38.40;;;;;;5365089;26;20379;-67
2024/04/14 05:47:55;;;;;;;3.77;1.70;;;16.30;38.30;;;;;;5401277;26;20267;-67
2024/04/14 05:50:20;;;;;;;1.87;1.77;;;16.40;38.00;;;;;;5391879;26;20571;-68
2024/04/14 05:52:48;;;;;;;2.63;1.87;;;16.60;38.70;;;;;;5388969;26;20293;-68
2024/04/14 05:55:14;;;;;;;1.90;1.70;;;16.60;37.80;;;;;;5387948;26;20801;-67
2024/04/14 05:57:42;;;;;;;2.23;1.90;;;16.70;38.20;;;;;;5395534;26;20240;-67
2024/04/14 06:00:08;;;;;;;2.03;1.70;;;16.80;37.50;;;;;;5380601;26;20314;-67
2024/04/14 06:02:36;;;;;;;2.63;1.73;;;16.80;37.80;;;;;;5407130;26;20243;-67
2024/04/14 06:05:02;;;;;;;4.17;1.77;;;16.90;37.80;;;;;;5386667;26;20373;-67
2024/04/14 06:07:30;;;;;;;2.33;1.80;;;16.80;37.50;;;;;;5390242;26;20718;-67
2024/04/14 06:09:55;;;;;;;1.97;1.60;;;16.90;37.60;;;;;;5398754;26;20315;-67
2024/04/14 06:12:24;;;;;;;2.30;1.70;;;17.10;36.80;;;;;;5401424;26;20330;-67
2024/04/14 06:14:49;;;;;;;1.70;1.60;;;17.10;36.90;;;;;;5387041;26;20324;-67
2024/04/14 06:17:17;;;;;;;3.37;1.93;;;17.20;37.60;;;;;;5400913;26;20235;-67
2024/04/14 06:19:46;;;;;;;1.83;1.67;;;17.10;37.50;;;;;;5390902;26;20240;-68
2024/04/14 06:22:11;;;;;;;2.37;1.83;;;17.40;37.70;;;;;;5382430;26;20303;-68
2024/04/14 06:24:40;;;;;;;1.70;1.60;;;17.60;37.20;;;;;;5394775;26;20247;-67
2024/04/14 06:27:06;;;;;;;4.27;2.17;;;18.00;36.60;;;;;;5380974;26;20262;-67
2024/04/14 06:29:34;;;;;;;1.80;1.70;;;18.10;36.90;;;;;;5393077;26;20235;-67
2024/04/14 06:31:59;;;;;;;3.27;2.00;;;18.10;35.80;;;;;;5400169;26;20257;-67
2024/04/14 06:34:28;;;;;;;2.40;1.70;;;18.30;35.90;;;;;;5397970;26;20725;-68
2024/04/14 06:36:53;;;;;;;2.03;1.83;;;18.50;35.80;;;;;;5394681;26;20238;-68
2024/04/14 06:39:21;;;;;;;1.70;1.60;;;18.80;34.10;;;;;;5384097;26;20277;-67
2024/04/14 06:41:47;;;;;;;4.60;1.70;;;18.90;35.00;;;;;;5385051;26;20353;-67
2024/04/14 06:44:15;;;;;;;3.07;1.73;;;19.00;35.10;;;;;;5392917;26;20738;-67
2024/04/14 06:46:41;;;;;;;3.03;1.60;;;19.10;34.00;;;;;;5389844;26;20318;-67
2024/04/14 06:49:09;;;;;;;2.00;1.50;;;19.20;34.50;;;;;;5389978;26;20243;-68
2024/04/14 06:51:35;;;;;;;2.33;1.53;;;19.20;34.70;;;;;;5373201;26;20365;-67
2024/04/14 06:54:03;;;;;;;2.47;1.90;;;19.40;34.10;;;;;;5384481;26;20246;-67
2024/04/14 06:56:29;;;;;;;1.83;1.73;;;19.60;34.20;;;;;;5400825;26;20365;-67
2024/04/14 06:58:57;;;;;;;3.27;1.70;;;19.60;34.20;;;;;;5396648;26;20737;-67
2024/04/14 07:01:23;;;;;;;2.30;1.80;;;19.80;34.30;;;;;;5386238;26;20377;-67
2024/04/14 07:03:52;;;;;;;1.70;1.60;;;19.90;34.40;;;;;;5394503;26;20245;-67
2024/04/14 07:06:17;;;;;;;3.53;1.93;;;19.90;34.40;;;;;;5371341;26;20666;-67
2024/04/14 07:08:46;;;;;;;2.07;1.70;;;20.20;34.00;;;;;;5361239;26;20238;-67
2024/04/14 07:11:11;;;;;;;2.13;1.43;;;20.30;33.30;;;;;;5365900;26;20243;-67
2024/04/14 07:13:40;;;;;;;2.60;1.63;;;20.30;33.10;;;;;;5393600;26;20720;-68
2024/04/14 07:16:05;;;;;;;2.87;1.90;;;20.50;33.70;;;;;;5375639;26;20247;-67
2024/04/14 07:18:33;;;;;;;2.63;1.77;;;20.50;34.20;;;;;;5390437;26;20231;-68
2024/04/14 07:20:59;;;;;;;2.30;2.10;;;20.60;33.90;;;;;;5379282;26;20706;-68
2024/04/14 07:23:28;;;;;;;2.60;1.80;;;20.70;33.80;;;;;;5379691;26;20244;-68
2024/04/14 07:25:54;;;;;;;2.80;2.03;;;20.80;33.70;;;;;;5375005;26;20250;-68
2024/04/14 07:28:22;;;;;;;2.50;1.80;;;21.00;33.20;;;;;;5407162;26;20820;-68
2024/04/14 07:30:48;;;;;;;3.33;1.60;;;21.00;34.20;;;;;;5381397;26;20236;-68
2024/04/14 07:33:16;;;;;;;3.63;1.90;;;21.20;32.90;;;;;;5371738;26;20246;-68
2024/04/14 07:35:42;;;;;;;3.80;1.80;;;21.30;32.30;;;;;;5386333;26;20255;-68
2024/04/14 07:38:10;;;;;;;3.57;2.10;;;21.40;32.60;;;;;;5404571;26;20281;-68
2024/04/14 07:40:36;;;;;;;1.73;1.55;;;21.50;31.50;;;;;;5377123;26;20310;-68
2024/04/14 07:43:04;;;;;;;1.70;1.60;;;21.40;31.40;;;;;;5363134;26;20258;-68
2024/04/14 07:45:30;;;;;;;2.92;1.80;;;21.50;31.80;;;;;;5384918;26;20334;-67
2024/04/14 07:47:58;;;;;;;2.28;1.52;;;21.70;31.10;;;;;;5376351;26;20244;-67
2024/04/14 07:50:24;;;;;;;3.42;2.35;;;21.80;31.20;;;;;;5372112;26;20656;-68
2024/04/14 07:52:52;;;;;;;3.20;2.00;;;21.80;31.20;;;;;;5388607;26;20256;-67
2024/04/14 07:55:18;;;;;;;3.28;1.85;;;21.80;31.90;;;;;;5389928;26;20244;-67
2024/04/14 07:57:46;;;;;;;2.15;1.50;;;21.90;30.60;;;;;;5380257;26;20344;-67
2024/04/14 08:00:12;;;;;;;2.15;1.50;;;22.00;30.40;;;;;;5383544;26;20242;-67
2024/04/14 08:02:41;;;;;;;2.08;1.70;;;22.00;31.10;;;;;;5376724;26;20700;-68
2024/04/14 08:05:07;;;;;;;1.80;1.45;;;22.20;31.20;;;;;;5362389;26;20734;-68
2024/04/14 08:07:35;;;;;;;1.88;1.42;;;22.20;30.30;;;;;;5371327;26;20286;-68
2024/04/14 08:10:01;;;;;;;1.98;1.40;;;22.30;30.60;;;;;;5392085;26;20299;-67
2024/04/14 08:12:29;;;;;;;2.30;1.58;;;22.40;28.90;;;;;;5380452;26;20361;-67
2024/04/14 08:14:55;;;;;;;1.98;1.77;;;22.40;30.00;;;;;;5389481;26;20286;-67
2024/04/14 08:17:23;;;;;;;2.00;1.55;;;22.40;30.10;;;;;;5384870;26;20598;-67
2024/04/14 08:19:49;;;;;;;2.25;1.63;;;22.50;30.00;;;;;;5382960;26;20279;-67
2024/04/14 08:22:17;;;;;;;2.45;1.90;;;22.70;29.40;;;;;;5368747;26;20738;-67
2024/04/14 08:24:42;;;;;;;3.33;1.83;;;22.80;29.70;;;;;;5393428;26;20312;-63
2024/04/14 08:27:10;;;;;;;1.85;1.75;;;22.80;30.90;;;;;;5390734;26;20232;-64
2024/04/14 08:29:37;;;;;;;1.60;1.50;;;22.70;30.10;;;;;;5387268;26;20252;-65
2024/04/14 08:32:05;;;;;;;2.13;1.50;;;22.60;29.10;;;;;;5379822;26;20294;-64
2024/04/14 08:34:31;;;;;;;4.85;1.92;;;22.60;30.00;;;;;;5382298;26;20240;-64
2024/04/14 08:36:59;;;;;;;1.77;1.67;;;22.70;31.40;;;;;;5382570;26;20287;-64
2024/04/14 08:39:25;;;;;;;1.92;1.73;;;22.90;31.70;;;;;;5393037;26;20696;-63
2024/04/14 08:41:53;;;;;;;7.40;2.00;;;23.00;29.60;;;;;;5394881;26;20314;-65
2024/04/14 08:44:18;;;;;;;3.30;1.80;;;23.10;30.20;;;;;;5400220;26;20817;-65
2024/04/14 08:46:47;;;;;;;1.95;1.25;;;23.20;31.30;;;;;;5385986;26;20345;-65
2024/04/14 08:49:12;;;;;;;2.17;1.50;;;23.30;31.00;;;;;;5379292;26;20244;-67
2024/04/14 08:51:41;;;;;;;1.48;1.38;;;23.30;30.80;;;;;;5388601;26;20235;-64
2024/04/14 08:54:06;;;;;;;2.33;1.20;;;23.30;29.00;;;;;;5373712;26;20727;-67
2024/04/14 08:56:34;;;;;;;2.20;1.45;;;23.30;30.00;;;;;;5378596;26;20345;-64
2024/04/14 08:59:00;;;;;;;1.45;1.30;;;23.40;29.20;;;;;;5407136;26;20236;-64
2024/04/14 09:01:28;;;;;;;2.80;1.50;;;23.50;29.20;;;;;;5396197;26;20697;-64
2024/04/14 09:03:54;;;;;;;3.20;1.67;;;23.70;29.30;;;;;;5379348;26;20778;-64
2024/04/14 09:06:22;;;;;;;2.55;1.92;;;24.00;30.80;;;;;;5377566;26;20347;-65
2024/04/14 09:08:48;;;;;;;2.42;1.73;;;24.80;28.60;;;;;;5390711;26;20297;-65
2024/04/14 09:11:16;;;;;;;1.50;1.40;;;25.80;26.60;;;;;;5390357;26;20251;-66
2024/04/14 09:13:41;;;;;;;2.15;1.40;;;26.80;26.10;;;;;;5376733;26;20260;-66
2024/04/14 09:16:12;;;;;;;1.98;1.60;;;26.40;26.70;;;;;;5387005;26;20238;-67
2024/04/14 09:18:37;;;;;;;1.02;1.02;;;25.40;27.40;;;;;;5380991;26;20248;-66
2024/04/14 09:21:05;;;;;;;1.60;1.15;;;24.90;27.30;;;;;;5401758;26;20320;-66
2024/04/14 09:23:31;;;;;;;2.42;1.38;;;24.70;27.80;;;;;;5389304;26;20251;-67
2024/04/14 09:25:59;;;;;;;3.30;1.40;;;24.50;28.10;;;;;;5384677;26;20286;-66
2024/04/14 09:28:25;;;;;;;2.00;1.80;;;24.70;28.30;;;;;;5402078;26;20242;-66
2024/04/14 09:30:54;;;;;;;2.78;1.30;;;24.90;28.10;;;;;;5380253;26;20357;-66
2024/04/14 09:33:19;;;;;;;1.35;1.25;;;24.60;27.50;;;;;;5379720;26;20351;-66
2024/04/14 09:35:47;;;;;;;2.40;1.38;;;24.40;27.50;;;;;;5394156;26;20244;-66
2024/04/14 09:38:14;;;;;;;1.42;1.33;;;24.20;27.90;;;;;;5396945;26;20820;-67
2024/04/14 09:40:42;;;;;;;1.58;1.48;;;24.10;28.50;;;;;;5388502;26;20647;-67
2024/04/14 09:43:08;;;;;;;2.58;1.35;;;24.20;28.80;;;;;;5394315;26;20311;-66
2024/04/14 09:45:36;;;;;;;2.83;1.35;;;24.10;28.80;;;;;;5393983;26;20817;-67
2024/04/14 09:48:02;;;;;;;2.72;1.50;;;24.10;29.20;;;;;;5379799;26;20380;-66
2024/04/14 09:50:30;;;;;;;2.63;1.50;;;24.10;29.90;;;;;;5392800;26;20725;-67
2024/04/14 09:52:56;;;;;;;1.85;1.38;;;24.20;30.30;;;;;;5387467;26;20347;-66
2024/04/14 09:55:24;;;;;;;1.17;1.13;;;24.30;29.50;;;;;;5392670;26;20235;-66
2024/04/14 09:57:49;;;;;;;1.83;1.33;;;24.40;29.90;;;;;;5376433;26;20299;-67
2024/04/14 10:00:17;;;;;;;1.90;1.60;;;24.30;29.30;;;;;;5388303;26;20737;-67
2024/04/14 10:02:45;;;;;;;2.88;1.75;;;24.40;30.60;;;;;;5394921;26;20251;-68
2024/04/14 10:05:13;;;;;;;3.63;1.83;;;24.30;31.90;;;;;;5374208;26;20610;-68
2024/04/14 10:07:39;;;;;;;5.25;2.40;;;24.40;33.50;;;;;;5392951;26;20290;-68
2024/04/14 10:10:07;;;;;;;2.10;1.90;;;24.40;34.20;;;;;;5386914;26;20248;-68
2024/04/14 10:12:33;;;;;;;3.08;2.28;;;24.40;30.80;;;;;;5395443;26;20350;-68
2024/04/14 10:15:01;;;;;;;5.22;2.88;;;24.50;32.60;;;;;;5386575;26;20248;-68
2024/04/14 10:17:27;;;;;;;2.10;1.50;;;24.50;33.20;;;;;;5375924;26;20295;-66
2024/04/14 10:19:55;;;;;;;3.50;2.08;;;24.40;29.60;;;;;;5390084;26;20326;-67
2024/04/14 10:22:21;;;;;;;3.60;2.08;;;24.30;34.90;;;;;;5374441;26;20259;-67
2024/04/14 10:24:49;;;;;;;1.83;1.52;;;24.20;36.20;;;;;;5381655;26;20279;-67
2024/04/14 10:27:15;;;;;;;3.35;1.90;;;24.20;29.90;;;;;;5391535;26;20304;-67
2024/04/14 10:29:44;;;;;;;2.88;1.85;;;24.30;31.20;;;;;;5378047;26;20353;-67
2024/04/14 10:32:10;;;;;;;1.50;1.40;;;24.30;34.90;;;;;;5394773;26;20305;-68
2024/04/14 10:34:38;;;;;;;2.95;1.92;;;24.30;30.00;;;;;;5372794;26;20342;-68
2024/04/14 10:37:04;;;;;;;2.42;2.00;;;24.30;33.40;;;;;;5381277;26;20242;-67
2024/04/14 10:39:33;;;;;;;2.42;1.60;;;24.30;31.50;;;;;;5376517;26;20353;-67
2024/04/14 10:41:58;;;;;;;2.00;1.75;;;24.30;31.60;;;;;;5391146;26;20247;-66
2024/04/14 10:44:27;;;;;;;3.92;1.90;;;24.30;29.30;;;;;;5390375;26;20247;-67
2024/04/14 10:46:52;;;;;;;1.90;1.80;;;24.20;33.90;;;;;;5394701;26;20376;-67
2024/04/14 10:49:20;;;;;;;3.30;2.08;;;24.20;34.10;;;;;;5381422;26;20272;-67
2024/04/14 10:51:46;;;;;;;2.53;1.67;;;24.20;33.10;;;;;;5366794;26;20338;-66
2024/04/14 10:54:14;;;;;;;2.33;1.75;;;24.20;35.10;;;;;;5390246;26;20854;-66
2024/04/14 10:56:40;;;;;;;3.17;2.00;;;24.20;34.60;;;;;;5397532;26;20892;-66
2024/04/14 10:59:08;;;;;;;2.97;1.88;;;24.10;35.30;;;;;;5379680;26;20232;-66
2024/04/14 11:01:34;;;;;;;6.97;1.73;;;24.20;31.70;;;;;;5393151;26;20236;-67
2024/04/14 11:04:03;;;;;;;2.53;1.60;;;24.20;31.50;;;;;;5372700;26;27035;-67
2024/04/14 11:06:28;;;;;;;2.78;1.70;;;24.30;33.40;;;;;;5372741;26;20859;-67
2024/04/14 11:08:58;;;;;;;1.80;1.70;;;24.30;31.90;;;;;;5404056;26;20781;-67
2024/04/14 11:11:23;;;;;;;2.75;1.85;;;24.30;32.70;;;;;;5378101;26;20627;-67
2024/04/14 11:13:51;;;;;;;1.58;1.48;;;24.20;34.90;;;;;;5392929;26;20236;-66
2024/04/14 11:16:17;;;;;;;13.75;2.05;;;24.20;32.60;;;;;;5393193;26;20240;-67
2024/04/14 11:18:46;;;;;;;1.90;1.67;;;24.10;34.60;;;;;;5393532;26;20356;-67
2024/04/14 11:21:12;;;;;;;2.10;1.90;;;24.10;34.60;;;;;;5379626;26;20239;-68
2024/04/14 11:23:40;;;;;;;2.00;1.60;;;24.10;33.20;;;;;;5375321;26;20780;-68
2024/04/14 11:26:06;;;;;;;3.22;1.80;;;24.30;34.20;;;;;;5388273;26;20248;-68
2024/04/14 11:28:34;;;;;;;2.65;1.73;;;24.30;33.70;;;;;;5387896;26;20337;-67
2024/04/14 11:30:59;;;;;;;2.15;1.45;;;24.30;33.40;;;;;;5388949;26;20319;-66
2024/04/14 11:33:28;;;;;;;1.52;1.40;;;24.30;33.20;;;;;;5389399;26;20247;-66
2024/04/14 11:35:53;;;;;;;1.70;1.60;;;24.30;33.60;;;;;;5378129;26;20251;-67
2024/04/14 11:38:22;;;;;;;2.88;1.75;;;24.20;32.50;;;;;;5379481;26;20286;-70
2024/04/14 11:40:47;;;;;;;2.38;1.70;;;24.20;33.40;;;;;;5381842;26;20260;-68
2024/04/14 11:43:15;;;;;;;2.33;1.70;;;24.30;33.40;;;;;;5386195;26;20695;-67
2024/04/14 11:45:41;;;;;;;1.60;1.50;;;24.40;29.90;;;;;;5393775;26;20342;-68
2024/04/14 11:48:09;;;;;;;3.25;2.30;;;24.30;30.00;;;;;;5384960;26;20239;-68
2024/04/14 11:50:35;;;;;;;2.38;2.08;;;24.50;32.00;;;;;;5385357;26;20310;-68
2024/04/14 11:53:03;;;;;;;2.65;1.77;;;24.50;32.00;;;;;;5388671;26;20343;-68
2024/04/14 11:55:29;;;;;;;2.50;2.00;;;24.50;33.60;;;;;;5387456;26;20299;-69
2024/04/14 11:57:57;;;;;;;2.50;1.85;;;24.50;35.40;;;;;;5384923;26;20340;-68
2024/04/14 12:00:23;;;;;;;1.83;1.73;;;24.40;32.70;;;;;;5393854;26;20282;-67
2024/04/14 12:02:51;;;;;;;2.83;2.00;;;24.50;35.00;;;;;;5382926;26;20252;-67
2024/04/14 12:05:18;;;;;;;3.03;2.20;;;24.40;34.60;;;;;;5391852;26;20721;-66
2024/04/14 12:07:46;;;;;;;2.35;1.65;;;24.30;35.20;;;;;;5298853;26;20325;-68
2024/04/14 12:10:12;;;;;;;2.55;1.92;;;24.60;28.10;;;;;;5308839;26;20332;-68
2024/04/14 12:12:40;;;;;;;3.13;2.00;;;24.50;33.00;;;;;;5309884;26;20246;-66
2024/04/14 12:15:06;;;;;;;1.95;1.70;;;24.40;32.20;;;;;;5308954;26;20368;-65
2024/04/14 12:17:34;;;;;;;3.53;2.17;;;24.30;34.10;;;;;;5308516;26;20737;-65
2024/04/14 12:20:00;;;;;;;2.08;1.83;;;24.30;33.40;;;;;;5308279;26;20321;-66
2024/04/14 12:22:28;;;;;;;1.50;1.40;;;24.20;30.40;;;;;;5301659;26;20388;-66
2024/04/14 12:24:53;;;;;;;3.25;1.83;;;24.50;32.40;;;;;;5307162;27;20259;-66
2024/04/14 12:27:22;;;;;;;4.15;1.83;;;24.40;31.90;;;;;;5309147;27;20271;-68
2024/04/14 12:29:47;;;;;;;2.28;1.70;;;24.40;29.40;;;;;;5307884;26;20340;-66
2024/04/14 12:32:15;;;;;;;1.70;1.60;;;24.50;31.70;;;;;;5307601;26;20261;-66
2024/04/14 12:34:41;;;;;;;3.60;2.08;;;24.40;32.90;;;;;;5307427;26;20745;-65
2024/04/14 12:37:09;;;;;;;2.20;2.00;;;24.50;31.80;;;;;;5306966;26;20347;-65
2024/04/14 12:39:35;;;;;;;2.42;2.22;;;24.40;31.80;;;;;;5295638;27;24548;-66
2024/04/14 12:42:03;;;;;;;2.10;1.92;;;24.40;32.30;;;;;;5306928;27;20363;-66
2024/04/14 12:44:29;;;;;;;2.33;1.88;;;24.40;32.10;;;;;;5307178;26;20804;-66
2024/04/14 12:46:57;;;;;;;2.33;1.83;;;24.30;33.40;;;;;;5301838;26;20284;-66